sensor_id;sensor_type;location;lat;lon;timestamp;temperature;humidity
5617;DHT22;2830;50.656;7.568;2023-06-24T00:00:00;14.80;99.90
5617;DHT22;2830;50.656;7.568;2023-06-24T00:02:27;14.80;99.90
5617;DHT22;2830;50.656;7.568;2023-06-24T00:04:54;14.80;99.90
5617;DHT22;2830;50.656;7.568;2023-06-24T00:07:21;14.70;99.90
5617;DHT22;2830;50.656;7.568;2023-06-24T00:09:49;14.70;99.90
5617;DHT22;2830;50.656;7.568;2023-06-24T00:12:16;14.70;99.90
5617;DHT22;2830;50.656;7.568;2023-06-24T00:14:49;14.60;99.90
5617;DHT22;2830;50.656;7.568;2023-06-24T00:17:16;14.60;99.90
5617;DHT22;2830;50.656;7.568;2023-06-24T00:19:43;14.70;99.90
5617;DHT22;2830;50.656;7.568;2023-06-24T00:22:10;14.60;99.90
5617;DHT22;2830;50.656;7.568;2023-06-24T00:24:41;14.50;99.90
5617;DHT22;2830;50.656;7.568;2023-06-24T00:27:09;14.60;99.90
5617;DHT22;2830;50.656;7.568;2023-06-24T00:29:37;14.50;99.90
5617;DHT22;2830;50.656;7.568;2023-06-24T00:32:04;14.50;99.90
5617;DHT22;2830;50.656;7.568;2023-06-24T00:34:30;14.50;99.90
5617;DHT22;2830;50.656;7.568;2023-06-24T00:36:57;14.40;99.90
5617;DHT22;2830;50.656;7.568;2023-06-24T00:39:24;14.40;99.90
5617;DHT22;2830;50.656;7.568;2023-06-24T00:41:50;14.40;99.90
5617;DHT22;2830;50.656;7.568;2023-06-24T00:44:18;14.40;99.90
5617;DHT22;2830;50.656;7.568;2023-06-24T00:46:46;14.40;99.90
5617;DHT22;2830;50.656;7.568;2023-06-24T00:49:13;14.30;99.90
5617;DHT22;2830;50.656;7.568;2023-06-24T00:51:42;14.30;99.90
5617;DHT22;2830;50.656;7.568;2023-06-24T00:54:14;14.30;99.90
5617;DHT22;2830;50.656;7.568;2023-06-24T00:56:41;14.30;99.90
5617;DHT22;2830;50.656;7.568;2023-06-24T00:59:13;14.30;99.90
5617;DHT22;2830;50.656;7.568;2023-06-24T01:01:40;14.20;99.90
5617;DHT22;2830;50.656;7.568;2023-06-24T01:04:07;14.20;99.90
5617;DHT22;2830;50.656;7.568;2023-06-24T01:06:35;14.20;99.90
5617;DHT22;2830;50.656;7.568;2023-06-24T01:09:03;14.20;99.90
5617;DHT22;2830;50.656;7.568;2023-06-24T01:11:32;14.10;99.90
5617;DHT22;2830;50.656;7.568;2023-06-24T01:13:58;14.10;99.90
5617;DHT22;2830;50.656;7.568;2023-06-24T01:16:37;14.10;99.90
5617;DHT22;2830;50.656;7.568;2023-06-24T01:25:18;14.00;99.90
5617;DHT22;2830;50.656;7.568;2023-06-24T01:31:25;13.90;99.90
5617;DHT22;2830;50.656;7.568;2023-06-24T01:34:16;13.90;99.90
5617;DHT22;2830;50.656;7.568;2023-06-24T01:39:41;13.80;99.90
5617;DHT22;2830;50.656;7.568;2023-06-24T01:42:12;13.90;99.90
5617;DHT22;2830;50.656;7.568;2023-06-24T01:44:43;13.90;99.90
5617;DHT22;2830;50.656;7.568;2023-06-24T01:47:12;13.90;99.90
5617;DHT22;2830;50.656;7.568;2023-06-24T01:49:42;13.80;99.90
5617;DHT22;2830;50.656;7.568;2023-06-24T01:52:10;13.80;99.90
5617;DHT22;2830;50.656;7.568;2023-06-24T01:54:39;13.70;99.90
5617;DHT22;2830;50.656;7.568;2023-06-24T01:57:09;13.70;99.90
5617;DHT22;2830;50.656;7.568;2023-06-24T01:59:39;13.60;99.90
5617;DHT22;2830;50.656;7.568;2023-06-24T02:02:07;13.70;99.90
5617;DHT22;2830;50.656;7.568;2023-06-24T02:04:35;13.70;99.90
5617;DHT22;2830;50.656;7.568;2023-06-24T02:07:03;13.60;99.90
5617;DHT22;2830;50.656;7.568;2023-06-24T02:09:32;13.50;99.90
5617;DHT22;2830;50.656;7.568;2023-06-24T02:12:01;13.60;99.90
5617;DHT22;2830;50.656;7.568;2023-06-24T02:14:29;13.60;99.90
5617;DHT22;2830;50.656;7.568;2023-06-24T02:16:59;13.60;99.90
5617;DHT22;2830;50.656;7.568;2023-06-24T02:19:30;13.40;99.90
5617;DHT22;2830;50.656;7.568;2023-06-24T02:21:58;13.30;99.90
5617;DHT22;2830;50.656;7.568;2023-06-24T02:24:27;13.30;99.90
5617;DHT22;2830;50.656;7.568;2023-06-24T02:26:57;13.40;99.90
5617;DHT22;2830;50.656;7.568;2023-06-24T02:29:26;13.40;99.90
5617;DHT22;2830;50.656;7.568;2023-06-24T02:31:54;13.40;99.90
5617;DHT22;2830;50.656;7.568;2023-06-24T02:34:23;13.30;99.90
5617;DHT22;2830;50.656;7.568;2023-06-24T02:36:50;13.30;99.90
5617;DHT22;2830;50.656;7.568;2023-06-24T02:39:17;13.30;99.90
5617;DHT22;2830;50.656;7.568;2023-06-24T02:41:45;13.40;99.90
5617;DHT22;2830;50.656;7.568;2023-06-24T02:44:14;13.40;99.90
5617;DHT22;2830;50.656;7.568;2023-06-24T02:46:41;13.40;99.90
5617;DHT22;2830;50.656;7.568;2023-06-24T02:49:10;13.30;99.90
5617;DHT22;2830;50.656;7.568;2023-06-24T02:51:39;13.30;99.90
5617;DHT22;2830;50.656;7.568;2023-06-24T02:54:06;13.20;99.90
5617;DHT22;2830;50.656;7.568;2023-06-24T02:56:34;13.20;99.90
5617;DHT22;2830;50.656;7.568;2023-06-24T02:59:01;13.20;99.90
5617;DHT22;2830;50.656;7.568;2023-06-24T03:01:29;13.20;99.90
5617;DHT22;2830;50.656;7.568;2023-06-24T03:03:56;13.20;99.90
5617;DHT22;2830;50.656;7.568;2023-06-24T03:06:23;13.10;99.90
5617;DHT22;2830;50.656;7.568;2023-06-24T03:08:50;13.10;99.90
5617;DHT22;2830;50.656;7.568;2023-06-24T03:11:17;13.10;99.90
5617;DHT22;2830;50.656;7.568;2023-06-24T03:13:44;13.10;99.90
5617;DHT22;2830;50.656;7.568;2023-06-24T03:16:11;13.10;99.90
5617;DHT22;2830;50.656;7.568;2023-06-24T03:18:43;13.00;99.90
5617;DHT22;2830;50.656;7.568;2023-06-24T03:21:10;13.00;99.90
5617;DHT22;2830;50.656;7.568;2023-06-24T03:23:37;13.10;99.90
5617;DHT22;2830;50.656;7.568;2023-06-24T03:26:04;13.00;99.90
5617;DHT22;2830;50.656;7.568;2023-06-24T03:28:32;13.10;99.90
5617;DHT22;2830;50.656;7.568;2023-06-24T03:30:58;13.10;99.90
5617;DHT22;2830;50.656;7.568;2023-06-24T03:33:25;13.00;99.90
5617;DHT22;2830;50.656;7.568;2023-06-24T03:35:53;13.00;99.90
5617;DHT22;2830;50.656;7.568;2023-06-24T03:38:21;13.00;99.90
5617;DHT22;2830;50.656;7.568;2023-06-24T03:40:48;13.00;99.90
5617;DHT22;2830;50.656;7.568;2023-06-24T03:43:14;13.00;99.90
5617;DHT22;2830;50.656;7.568;2023-06-24T03:45:41;13.00;99.90
5617;DHT22;2830;50.656;7.568;2023-06-24T03:48:08;13.10;99.90
5617;DHT22;2830;50.656;7.568;2023-06-24T03:50:35;13.10;99.90
5617;DHT22;2830;50.656;7.568;2023-06-24T03:53:03;13.20;99.90
5617;DHT22;2830;50.656;7.568;2023-06-24T03:55:30;13.10;99.90
5617;DHT22;2830;50.656;7.568;2023-06-24T03:57:57;13.00;99.90
5617;DHT22;2830;50.656;7.568;2023-06-24T04:00:24;13.10;99.90
5617;DHT22;2830;50.656;7.568;2023-06-24T04:02:52;13.20;99.90
5617;DHT22;2830;50.656;7.568;2023-06-24T04:05:20;13.20;99.90
5617;DHT22;2830;50.656;7.568;2023-06-24T04:07:48;13.30;99.90
5617;DHT22;2830;50.656;7.568;2023-06-24T04:10:17;13.30;99.90
5617;DHT22;2830;50.656;7.568;2023-06-24T04:12:45;13.30;99.90
5617;DHT22;2830;50.656;7.568;2023-06-24T04:15:12;13.40;99.90
5617;DHT22;2830;50.656;7.568;2023-06-24T04:17:38;13.40;99.90
5617;DHT22;2830;50.656;7.568;2023-06-24T04:20:09;13.50;99.90
5617;DHT22;2830;50.656;7.568;2023-06-24T04:22:37;13.60;99.90
5617;DHT22;2830;50.656;7.568;2023-06-24T04:25:05;13.70;99.90
5617;DHT22;2830;50.656;7.568;2023-06-24T04:27:33;13.80;99.90
5617;DHT22;2830;50.656;7.568;2023-06-24T04:30:03;13.90;99.90
5617;DHT22;2830;50.656;7.568;2023-06-24T04:32:30;13.90;99.90
5617;DHT22;2830;50.656;7.568;2023-06-24T04:34:58;14.00;99.90
5617;DHT22;2830;50.656;7.568;2023-06-24T04:37:26;14.10;99.90
5617;DHT22;2830;50.656;7.568;2023-06-24T04:39:53;14.10;99.90
5617;DHT22;2830;50.656;7.568;2023-06-24T04:42:20;14.10;99.90
5617;DHT22;2830;50.656;7.568;2023-06-24T04:44:47;14.00;99.90
5617;DHT22;2830;50.656;7.568;2023-06-24T04:47:18;14.20;99.90
5617;DHT22;2830;50.656;7.568;2023-06-24T04:49:45;14.30;99.90
5617;DHT22;2830;50.656;7.568;2023-06-24T04:52:12;14.50;99.90
5617;DHT22;2830;50.656;7.568;2023-06-24T04:54:38;14.70;99.90
5617;DHT22;2830;50.656;7.568;2023-06-24T04:57:07;14.90;99.90
5617;DHT22;2830;50.656;7.568;2023-06-24T04:59:34;15.10;99.90
5617;DHT22;2830;50.656;7.568;2023-06-24T05:02:02;15.30;99.90
5617;DHT22;2830;50.656;7.568;2023-06-24T05:04:29;15.40;99.90
5617;DHT22;2830;50.656;7.568;2023-06-24T05:06:56;15.40;99.90
5617;DHT22;2830;50.656;7.568;2023-06-24T05:09:23;15.40;99.90
5617;DHT22;2830;50.656;7.568;2023-06-24T05:11:49;15.50;99.90
5617;DHT22;2830;50.656;7.568;2023-06-24T05:14:17;15.70;99.90
5617;DHT22;2830;50.656;7.568;2023-06-24T05:16:44;16.00;99.90
5617;DHT22;2830;50.656;7.568;2023-06-24T05:19:11;16.40;99.90
5617;DHT22;2830;50.656;7.568;2023-06-24T05:21:38;16.90;99.90
5617;DHT22;2830;50.656;7.568;2023-06-24T05:24:05;17.30;99.90
5617;DHT22;2830;50.656;7.568;2023-06-24T05:26:32;17.80;99.90
5617;DHT22;2830;50.656;7.568;2023-06-24T05:28:58;18.10;99.90
5617;DHT22;2830;50.656;7.568;2023-06-24T05:31:25;18.20;99.90
5617;DHT22;2830;50.656;7.568;2023-06-24T05:33:52;18.60;99.90
5617;DHT22;2830;50.656;7.568;2023-06-24T05:36:18;18.70;99.90
5617;DHT22;2830;50.656;7.568;2023-06-24T05:38:45;18.50;99.90
5617;DHT22;2830;50.656;7.568;2023-06-24T05:41:12;18.80;99.90
5617;DHT22;2830;50.656;7.568;2023-06-24T05:43:38;19.20;99.90
5617;DHT22;2830;50.656;7.568;2023-06-24T05:46:07;19.30;99.90
5617;DHT22;2830;50.656;7.568;2023-06-24T05:48:34;19.40;99.90
5617;DHT22;2830;50.656;7.568;2023-06-24T05:51:01;19.70;99.90
5617;DHT22;2830;50.656;7.568;2023-06-24T05:53:28;20.00;99.90
5617;DHT22;2830;50.656;7.568;2023-06-24T05:55:54;20.30;99.90
5617;DHT22;2830;50.656;7.568;2023-06-24T05:58:21;20.60;99.90
5617;DHT22;2830;50.656;7.568;2023-06-24T06:00:48;21.00;99.90
5617;DHT22;2830;50.656;7.568;2023-06-24T06:03:15;21.30;99.90
5617;DHT22;2830;50.656;7.568;2023-06-24T06:05:41;21.60;99.90
5617;DHT22;2830;50.656;7.568;2023-06-24T06:08:08;21.90;99.90
5617;DHT22;2830;50.656;7.568;2023-06-24T06:10:35;22.00;99.90
5617;DHT22;2830;50.656;7.568;2023-06-24T06:13:01;21.80;99.90
5617;DHT22;2830;50.656;7.568;2023-06-24T06:15:28;22.10;99.90
5617;DHT22;2830;50.656;7.568;2023-06-24T06:17:55;22.20;99.90
5617;DHT22;2830;50.656;7.568;2023-06-24T06:20:22;22.60;99.90
5617;DHT22;2830;50.656;7.568;2023-06-24T06:22:48;22.70;99.90
5617;DHT22;2830;50.656;7.568;2023-06-24T06:25:17;22.90;99.80
5617;DHT22;2830;50.656;7.568;2023-06-24T06:27:44;23.10;99.50
5617;DHT22;2830;50.656;7.568;2023-06-24T06:30:11;23.50;98.10
5617;DHT22;2830;50.656;7.568;2023-06-24T06:32:38;24.00;98.10
5617;DHT22;2830;50.656;7.568;2023-06-24T06:35:06;23.90;97.40
5617;DHT22;2830;50.656;7.568;2023-06-24T06:37:33;24.50;96.50
5617;DHT22;2830;50.656;7.568;2023-06-24T06:39:59;24.60;96.20
5617;DHT22;2830;50.656;7.568;2023-06-24T06:42:26;25.10;95.40
5617;DHT22;2830;50.656;7.568;2023-06-24T06:44:53;25.30;95.20
5617;DHT22;2830;50.656;7.568;2023-06-24T06:47:20;25.60;95.60
5617;DHT22;2830;50.656;7.568;2023-06-24T06:49:46;25.60;96.00
5617;DHT22;2830;50.656;7.568;2023-06-24T06:52:13;26.00;94.90
5617;DHT22;2830;50.656;7.568;2023-06-24T06:54:43;26.20;92.30
5617;DHT22;2830;50.656;7.568;2023-06-24T06:57:10;26.20;93.40
5617;DHT22;2830;50.656;7.568;2023-06-24T06:59:37;26.50;92.90
5617;DHT22;2830;50.656;7.568;2023-06-24T07:02:04;27.00;92.40
5617;DHT22;2830;50.656;7.568;2023-06-24T07:04:31;27.50;91.50
5617;DHT22;2830;50.656;7.568;2023-06-24T07:06:57;27.70;90.40
5617;DHT22;2830;50.656;7.568;2023-06-24T07:09:24;27.60;89.70
5617;DHT22;2830;50.656;7.568;2023-06-24T07:11:51;27.90;89.00
5617;DHT22;2830;50.656;7.568;2023-06-24T07:14:19;28.10;91.00
5617;DHT22;2830;50.656;7.568;2023-06-24T07:16:45;28.70;86.20
5617;DHT22;2830;50.656;7.568;2023-06-24T07:19:12;29.00;83.80
5617;DHT22;2830;50.656;7.568;2023-06-24T07:21:39;29.40;83.30
5617;DHT22;2830;50.656;7.568;2023-06-24T07:24:06;29.10;83.30
5617;DHT22;2830;50.656;7.568;2023-06-24T07:26:32;29.30;84.00
5617;DHT22;2830;50.656;7.568;2023-06-24T07:29:06;29.60;80.30
5617;DHT22;2830;50.656;7.568;2023-06-24T07:31:36;29.40;83.20
5617;DHT22;2830;50.656;7.568;2023-06-24T07:34:04;29.50;79.50
5617;DHT22;2830;50.656;7.568;2023-06-24T07:36:31;29.60;76.50
5617;DHT22;2830;50.656;7.568;2023-06-24T07:38:58;29.80;79.00
5617;DHT22;2830;50.656;7.568;2023-06-24T07:41:25;29.90;77.50
5617;DHT22;2830;50.656;7.568;2023-06-24T07:43:51;30.50;77.90
5617;DHT22;2830;50.656;7.568;2023-06-24T07:46:18;31.10;78.20
5617;DHT22;2830;50.656;7.568;2023-06-24T07:48:45;30.80;73.60
5617;DHT22;2830;50.656;7.568;2023-06-24T07:51:11;30.70;74.60
5617;DHT22;2830;50.656;7.568;2023-06-24T07:53:38;30.70;73.60
5617;DHT22;2830;50.656;7.568;2023-06-24T07:56:05;30.70;75.00
5617;DHT22;2830;50.656;7.568;2023-06-24T07:58:33;30.80;76.90
5617;DHT22;2830;50.656;7.568;2023-06-24T08:01:00;30.70;71.50
5617;DHT22;2830;50.656;7.568;2023-06-24T08:03:26;31.10;67.20
5617;DHT22;2830;50.656;7.568;2023-06-24T08:05:54;31.00;71.00
5617;DHT22;2830;50.656;7.568;2023-06-24T08:08:22;31.40;68.10
5617;DHT22;2830;50.656;7.568;2023-06-24T08:10:49;32.00;68.30
5617;DHT22;2830;50.656;7.568;2023-06-24T08:13:16;31.80;67.70
5617;DHT22;2830;50.656;7.568;2023-06-24T08:15:42;31.90;62.70
5617;DHT22;2830;50.656;7.568;2023-06-24T08:18:09;32.00;67.00
5617;DHT22;2830;50.656;7.568;2023-06-24T08:20:39;32.20;65.00
5617;DHT22;2830;50.656;7.568;2023-06-24T08:23:05;33.00;62.70
5617;DHT22;2830;50.656;7.568;2023-06-24T08:25:32;33.10;60.20
5617;DHT22;2830;50.656;7.568;2023-06-24T08:28:00;32.80;60.00
5617;DHT22;2830;50.656;7.568;2023-06-24T08:30:26;33.00;62.20
5617;DHT22;2830;50.656;7.568;2023-06-24T08:32:53;33.20;61.60
5617;DHT22;2830;50.656;7.568;2023-06-24T08:35:20;32.80;60.30
5617;DHT22;2830;50.656;7.568;2023-06-24T08:37:47;32.40;58.00
5617;DHT22;2830;50.656;7.568;2023-06-24T08:40:14;33.20;59.60
5617;DHT22;2830;50.656;7.568;2023-06-24T08:42:43;33.20;59.60
5617;DHT22;2830;50.656;7.568;2023-06-24T08:45:10;33.50;56.80
5617;DHT22;2830;50.656;7.568;2023-06-24T08:47:37;33.60;56.60
5617;DHT22;2830;50.656;7.568;2023-06-24T08:50:08;33.20;53.70
5617;DHT22;2830;50.656;7.568;2023-06-24T08:52:38;33.50;59.60
5617;DHT22;2830;50.656;7.568;2023-06-24T08:55:11;33.60;58.60
5617;DHT22;2830;50.656;7.568;2023-06-24T08:57:40;33.90;55.90
5617;DHT22;2830;50.656;7.568;2023-06-24T09:00:08;34.20;57.00
5617;DHT22;2830;50.656;7.568;2023-06-24T09:02:39;33.90;55.10
5617;DHT22;2830;50.656;7.568;2023-06-24T09:05:07;34.40;52.30
5617;DHT22;2830;50.656;7.568;2023-06-24T09:07:34;34.80;54.50
5617;DHT22;2830;50.656;7.568;2023-06-24T09:10:01;34.90;50.00
5617;DHT22;2830;50.656;7.568;2023-06-24T09:12:31;34.80;49.40
5617;DHT22;2830;50.656;7.568;2023-06-24T09:14:59;35.20;51.70
5617;DHT22;2830;50.656;7.568;2023-06-24T09:17:25;35.20;47.20
5617;DHT22;2830;50.656;7.568;2023-06-24T09:20:04;34.70;49.60
5617;DHT22;2830;50.656;7.568;2023-06-24T09:22:31;35.00;49.20
5617;DHT22;2830;50.656;7.568;2023-06-24T09:25:00;35.00;48.30
5617;DHT22;2830;50.656;7.568;2023-06-24T09:27:31;34.40;51.60
5617;DHT22;2830;50.656;7.568;2023-06-24T09:29:58;33.60;52.20
5617;DHT22;2830;50.656;7.568;2023-06-24T09:32:31;33.30;52.70
5617;DHT22;2830;50.656;7.568;2023-06-24T09:34:59;32.90;53.60
5617;DHT22;2830;50.656;7.568;2023-06-24T09:37:30;32.70;56.00
5617;DHT22;2830;50.656;7.568;2023-06-24T09:40:00;33.40;53.60
5617;DHT22;2830;50.656;7.568;2023-06-24T09:42:28;34.10;48.60
5617;DHT22;2830;50.656;7.568;2023-06-24T09:44:56;34.60;47.50
5617;DHT22;2830;50.656;7.568;2023-06-24T09:47:24;35.10;49.10
5617;DHT22;2830;50.656;7.568;2023-06-24T09:49:53;36.00;46.40
5617;DHT22;2830;50.656;7.568;2023-06-24T09:52:22;36.10;45.50
5617;DHT22;2830;50.656;7.568;2023-06-24T09:54:51;35.80;48.20
5617;DHT22;2830;50.656;7.568;2023-06-24T09:57:23;36.50;46.60
5617;DHT22;2830;50.656;7.568;2023-06-24T09:59:51;37.30;47.10
5617;DHT22;2830;50.656;7.568;2023-06-24T10:02:18;37.00;44.70
5617;DHT22;2830;50.656;7.568;2023-06-24T10:04:46;37.30;47.30
5617;DHT22;2830;50.656;7.568;2023-06-24T10:07:14;37.50;43.30
5617;DHT22;2830;50.656;7.568;2023-06-24T10:09:41;37.20;42.20
5617;DHT22;2830;50.656;7.568;2023-06-24T10:12:09;37.20;42.70
5617;DHT22;2830;50.656;7.568;2023-06-24T10:14:37;36.90;43.30
5617;DHT22;2830;50.656;7.568;2023-06-24T10:17:04;36.70;44.40
5617;DHT22;2830;50.656;7.568;2023-06-24T10:19:38;37.80;45.40
5617;DHT22;2830;50.656;7.568;2023-06-24T10:22:10;38.00;44.40
5617;DHT22;2830;50.656;7.568;2023-06-24T10:24:39;38.70;39.90
5617;DHT22;2830;50.656;7.568;2023-06-24T10:27:13;38.90;42.30
5617;DHT22;2830;50.656;7.568;2023-06-24T10:29:48;38.90;40.70
5617;DHT22;2830;50.656;7.568;2023-06-24T10:32:15;38.70;40.50
5617;DHT22;2830;50.656;7.568;2023-06-24T10:34:47;38.30;40.60
5617;DHT22;2830;50.656;7.568;2023-06-24T10:39:50;36.80;42.60
5617;DHT22;2830;50.656;7.568;2023-06-24T10:44:55;38.40;47.80
5617;DHT22;2830;50.656;7.568;2023-06-24T10:47:26;39.30;50.40
5617;DHT22;2830;50.656;7.568;2023-06-24T10:49:54;39.70;52.10
5617;DHT22;2830;50.656;7.568;2023-06-24T10:52:22;39.80;56.90
5617;DHT22;2830;50.656;7.568;2023-06-24T10:54:50;39.70;58.70
5617;DHT22;2830;50.656;7.568;2023-06-24T10:57:24;39.60;57.50
5617;DHT22;2830;50.656;7.568;2023-06-24T10:59:53;39.30;56.80
5617;DHT22;2830;50.656;7.568;2023-06-24T11:02:21;39.50;56.60
5617;DHT22;2830;50.656;7.568;2023-06-24T11:04:54;39.70;58.80
5617;DHT22;2830;50.656;7.568;2023-06-24T11:07:25;40.00;58.80
5617;DHT22;2830;50.656;7.568;2023-06-24T11:12:24;40.40;67.50
5617;DHT22;2830;50.656;7.568;2023-06-24T11:14:56;40.40;61.70
5617;DHT22;2830;50.656;7.568;2023-06-24T11:17:24;40.30;52.70
5617;DHT22;2830;50.656;7.568;2023-06-24T11:19:52;39.50;55.40
5617;DHT22;2830;50.656;7.568;2023-06-24T11:22:20;39.00;54.60
5617;DHT22;2830;50.656;7.568;2023-06-24T11:24:47;38.90;52.00
5617;DHT22;2830;50.656;7.568;2023-06-24T11:27:14;39.10;55.80
5617;DHT22;2830;50.656;7.568;2023-06-24T11:29:40;38.30;58.00
5617;DHT22;2830;50.656;7.568;2023-06-24T11:32:08;38.20;49.30
5617;DHT22;2830;50.656;7.568;2023-06-24T11:34:36;37.50;51.20
5617;DHT22;2830;50.656;7.568;2023-06-24T11:37:30;37.90;51.10
5617;DHT22;2830;50.656;7.568;2023-06-24T11:40:07;37.50;50.80
5617;DHT22;2830;50.656;7.568;2023-06-24T11:42:38;37.30;53.70
5617;DHT22;2830;50.656;7.568;2023-06-24T11:45:08;37.60;56.30
5617;DHT22;2830;50.656;7.568;2023-06-24T11:47:39;36.60;62.70
5617;DHT22;2830;50.656;7.568;2023-06-24T11:50:07;35.80;61.10
5617;DHT22;2830;50.656;7.568;2023-06-24T11:55:18;36.00;55.50
5617;DHT22;2830;50.656;7.568;2023-06-24T11:58:04;35.30;45.70
5617;DHT22;2830;50.656;7.568;2023-06-24T12:00:38;35.90;47.70
5617;DHT22;2830;50.656;7.568;2023-06-24T12:03:06;36.00;42.60
5617;DHT22;2830;50.656;7.568;2023-06-24T12:05:38;36.10;43.10
5617;DHT22;2830;50.656;7.568;2023-06-24T12:08:10;36.70;46.50
5617;DHT22;2830;50.656;7.568;2023-06-24T12:10:38;36.50;45.50
5617;DHT22;2830;50.656;7.568;2023-06-24T12:13:09;36.20;46.20
5617;DHT22;2830;50.656;7.568;2023-06-24T12:15:36;36.20;46.40
5617;DHT22;2830;50.656;7.568;2023-06-24T12:18:03;36.50;44.40
5617;DHT22;2830;50.656;7.568;2023-06-24T12:20:30;36.40;46.20
5617;DHT22;2830;50.656;7.568;2023-06-24T12:23:02;36.00;45.90
5617;DHT22;2830;50.656;7.568;2023-06-24T12:25:30;35.70;49.50
5617;DHT22;2830;50.656;7.568;2023-06-24T12:27:56;35.70;47.40
5617;DHT22;2830;50.656;7.568;2023-06-24T12:30:23;34.80;49.40
5617;DHT22;2830;50.656;7.568;2023-06-24T12:32:50;33.90;52.20
5617;DHT22;2830;50.656;7.568;2023-06-24T12:35:18;33.00;57.50
5617;DHT22;2830;50.656;7.568;2023-06-24T12:37:44;32.70;54.10
5617;DHT22;2830;50.656;7.568;2023-06-24T12:40:12;33.00;54.40
5617;DHT22;2830;50.656;7.568;2023-06-24T12:42:39;32.70;53.00
5617;DHT22;2830;50.656;7.568;2023-06-24T12:45:06;32.70;58.30
5617;DHT22;2830;50.656;7.568;2023-06-24T12:47:33;33.40;48.50
5617;DHT22;2830;50.656;7.568;2023-06-24T12:50:00;33.60;49.70
5617;DHT22;2830;50.656;7.568;2023-06-24T12:52:26;34.00;48.50
5617;DHT22;2830;50.656;7.568;2023-06-24T12:54:53;34.30;47.00
5617;DHT22;2830;50.656;7.568;2023-06-24T12:57:20;34.50;47.00
5617;DHT22;2830;50.656;7.568;2023-06-24T12:59:47;34.50;44.10
5617;DHT22;2830;50.656;7.568;2023-06-24T13:02:13;34.30;46.50
5617;DHT22;2830;50.656;7.568;2023-06-24T13:04:40;34.20;44.90
5617;DHT22;2830;50.656;7.568;2023-06-24T13:07:07;34.20;45.40
5617;DHT22;2830;50.656;7.568;2023-06-24T13:09:36;34.30;45.00
5617;DHT22;2830;50.656;7.568;2023-06-24T13:12:03;34.30;43.80
5617;DHT22;2830;50.656;7.568;2023-06-24T13:14:30;34.20;42.20
5617;DHT22;2830;50.656;7.568;2023-06-24T13:16:57;33.80;43.90
5617;DHT22;2830;50.656;7.568;2023-06-24T13:19:24;33.70;44.80
5617;DHT22;2830;50.656;7.568;2023-06-24T13:21:51;33.90;47.10
5617;DHT22;2830;50.656;7.568;2023-06-24T13:24:17;33.80;45.80
5617;DHT22;2830;50.656;7.568;2023-06-24T13:26:44;33.20;51.60
5617;DHT22;2830;50.656;7.568;2023-06-24T13:29:11;33.10;52.80
5617;DHT22;2830;50.656;7.568;2023-06-24T13:31:38;32.80;48.10
5617;DHT22;2830;50.656;7.568;2023-06-24T13:34:05;32.40;51.10
5617;DHT22;2830;50.656;7.568;2023-06-24T13:36:34;32.50;51.00
5617;DHT22;2830;50.656;7.568;2023-06-24T13:39:06;32.40;48.50
5617;DHT22;2830;50.656;7.568;2023-06-24T13:41:34;31.90;48.70
5617;DHT22;2830;50.656;7.568;2023-06-24T13:44:04;31.40;52.00
5617;DHT22;2830;50.656;7.568;2023-06-24T13:46:32;31.20;51.30
5617;DHT22;2830;50.656;7.568;2023-06-24T13:48:59;31.10;53.40
5617;DHT22;2830;50.656;7.568;2023-06-24T13:51:30;31.00;54.00
5617;DHT22;2830;50.656;7.568;2023-06-24T13:53:56;31.20;54.50
5617;DHT22;2830;50.656;7.568;2023-06-24T13:56:25;31.40;52.40
5617;DHT22;2830;50.656;7.568;2023-06-24T13:58:53;31.30;52.00
5617;DHT22;2830;50.656;7.568;2023-06-24T14:01:20;31.30;50.40
5617;DHT22;2830;50.656;7.568;2023-06-24T14:03:48;31.00;50.10
5617;DHT22;2830;50.656;7.568;2023-06-24T14:06:16;30.70;54.50
5617;DHT22;2830;50.656;7.568;2023-06-24T14:08:43;30.70;53.90
5617;DHT22;2830;50.656;7.568;2023-06-24T14:11:10;30.40;51.90
5617;DHT22;2830;50.656;7.568;2023-06-24T14:13:37;30.30;53.20
5617;DHT22;2830;50.656;7.568;2023-06-24T14:16:05;30.20;53.90
5617;DHT22;2830;50.656;7.568;2023-06-24T14:18:32;30.10;58.60
5617;DHT22;2830;50.656;7.568;2023-06-24T14:21:00;29.90;53.50
5617;DHT22;2830;50.656;7.568;2023-06-24T14:23:28;29.90;51.90
5617;DHT22;2830;50.656;7.568;2023-06-24T14:25:55;30.10;54.50
5617;DHT22;2830;50.656;7.568;2023-06-24T14:28:22;30.30;54.20
5617;DHT22;2830;50.656;7.568;2023-06-24T14:30:49;30.20;54.10
5617;DHT22;2830;50.656;7.568;2023-06-24T14:33:16;30.40;55.20
5617;DHT22;2830;50.656;7.568;2023-06-24T14:35:43;30.30;52.30
5617;DHT22;2830;50.656;7.568;2023-06-24T14:38:10;30.30;54.00
5617;DHT22;2830;50.656;7.568;2023-06-24T14:40:36;30.30;51.40
5617;DHT22;2830;50.656;7.568;2023-06-24T14:43:03;30.30;50.10
5617;DHT22;2830;50.656;7.568;2023-06-24T14:45:30;30.10;51.10
5617;DHT22;2830;50.656;7.568;2023-06-24T14:47:57;30.10;55.60
5617;DHT22;2830;50.656;7.568;2023-06-24T14:50:24;30.10;55.50
5617;DHT22;2830;50.656;7.568;2023-06-24T14:52:51;30.00;55.30
5617;DHT22;2830;50.656;7.568;2023-06-24T14:55:17;30.10;54.60
5617;DHT22;2830;50.656;7.568;2023-06-24T14:57:44;30.00;50.90
5617;DHT22;2830;50.656;7.568;2023-06-24T15:00:11;29.70;51.10
5617;DHT22;2830;50.656;7.568;2023-06-24T15:02:38;29.70;55.60
5617;DHT22;2830;50.656;7.568;2023-06-24T15:05:05;29.90;55.10
5617;DHT22;2830;50.656;7.568;2023-06-24T15:07:32;30.00;54.90
5617;DHT22;2830;50.656;7.568;2023-06-24T15:09:59;30.10;55.90
5617;DHT22;2830;50.656;7.568;2023-06-24T15:12:25;30.10;56.60
5617;DHT22;2830;50.656;7.568;2023-06-24T15:14:52;30.10;57.40
5617;DHT22;2830;50.656;7.568;2023-06-24T15:17:19;30.00;56.00
5617;DHT22;2830;50.656;7.568;2023-06-24T15:19:47;29.90;55.60
5617;DHT22;2830;50.656;7.568;2023-06-24T15:22:14;29.80;56.20
5617;DHT22;2830;50.656;7.568;2023-06-24T15:24:42;29.70;56.90
5617;DHT22;2830;50.656;7.568;2023-06-24T15:27:11;29.60;57.20
5617;DHT22;2830;50.656;7.568;2023-06-24T15:29:39;29.40;56.90
5617;DHT22;2830;50.656;7.568;2023-06-24T15:32:05;29.50;61.40
5617;DHT22;2830;50.656;7.568;2023-06-24T15:34:32;29.50;59.40
5617;DHT22;2830;50.656;7.568;2023-06-24T15:36:59;29.50;56.60
5617;DHT22;2830;50.656;7.568;2023-06-24T15:39:26;29.50;55.80
5617;DHT22;2830;50.656;7.568;2023-06-24T15:41:53;29.40;58.30
5617;DHT22;2830;50.656;7.568;2023-06-24T15:44:19;29.30;56.80
5617;DHT22;2830;50.656;7.568;2023-06-24T15:46:46;29.10;57.70
5617;DHT22;2830;50.656;7.568;2023-06-24T15:49:14;29.00;59.30
5617;DHT22;2830;50.656;7.568;2023-06-24T15:51:42;29.00;58.80
5617;DHT22;2830;50.656;7.568;2023-06-24T15:54:08;28.90;58.40
5617;DHT22;2830;50.656;7.568;2023-06-24T15:56:35;28.70;57.70
5617;DHT22;2830;50.656;7.568;2023-06-24T15:59:02;28.50;58.50
5617;DHT22;2830;50.656;7.568;2023-06-24T16:01:29;28.30;58.10
5617;DHT22;2830;50.656;7.568;2023-06-24T16:03:56;28.30;57.70
5617;DHT22;2830;50.656;7.568;2023-06-24T16:06:23;28.30;57.00
5617;DHT22;2830;50.656;7.568;2023-06-24T16:08:50;28.40;58.20
5617;DHT22;2830;50.656;7.568;2023-06-24T16:11:17;28.30;57.30
5617;DHT22;2830;50.656;7.568;2023-06-24T16:13:44;28.30;58.70
5617;DHT22;2830;50.656;7.568;2023-06-24T16:16:10;28.30;58.80
5617;DHT22;2830;50.656;7.568;2023-06-24T16:18:38;28.20;57.50
5617;DHT22;2830;50.656;7.568;2023-06-24T16:21:04;28.10;59.00
5617;DHT22;2830;50.656;7.568;2023-06-24T16:23:31;28.00;59.30
5617;DHT22;2830;50.656;7.568;2023-06-24T16:25:58;28.00;59.60
5617;DHT22;2830;50.656;7.568;2023-06-24T16:28:24;28.00;59.90